Pagrindinis puslapis
METAR-TAF:

METAR-TAF

Oro uostai :

Kristiansund, Norvegija

platuma: 63-07N, ilguma: 007-50E, Aukštis: 6 m

Dabartinis oras

Ataskaita buvo paskelbta 38 minutes, ne 11:50 UTC
Vėjas 3 kt nuo kintamojo kryptimis
Temperatūra 4°C
Drėgmė 65%
Slėgis 990 hPa
Matomumas 10 km arba daugiau
Išsisklaidę debesys ne aukštis 6600 ft

METAR: ENKB 161150Z VRB03KT 9999 SCT066 04/M02 Q0990 RMK WIND 745FT 17011KT

Laikas: 13:28 (12:28 UTC)

Prognozė

Ataskaita buvo paskelbta 1 valandą ir 28 minutes, ne 11:00 UTC
Prognozė galioja nuo 16 metu 12 UTC su 16 metu 21 UTC
Vėjas 5 kt iš Pietų
Matomumas 10 km arba daugiau
Su prošvaistėmis ne aukštis 5000 ft
Laikinai
nuo 16 metu 12 UTC su 16 metu 21 UTC
Išsisklaidę debesys ne aukštis 2000 ft, Liūtiniai kamuoliniai debesys.
Su prošvaistėmis ne aukštis 3000 ft
lietus
Tapsmas
nuo 16 metu 18 UTC su 16 metu 20 UTC
Vėjas 15 kt iš Pietvakarių

TAF: ENKB 161100Z 1612/1621 18005KT 9999 BKN050 TEMPO 1612/1621 SHRA SCT020CB BKN030 BECMG 1618/1620 23015KT

Orai ataskaitas ir orų prognozės (METAR, TAF).

turimą stotys yra geltonos ir raudonos taškus žemėlapyje.

Perkelti pele per norėdami pamatyti stoties vardą.

Tada spustelėkite, norėdami matyti oro stebėjimo ir prognozės.

Norėdami pakeisti žemėlapį: spustelėkite ant žalios mygtukų su juodo kryžiaus žemyn,; žalią mygtuką su brūkšneliu, jei norite nutolinti; arba žalių rodyklių gretimoms žemėlapius.


METAR-TAF: